sensor_id;sensor_type;location;lat;lon;timestamp;P1;durP1;ratioP1;P2;durP2;ratioP2
43337;SDS011;28933;52.492;13.434;2023-04-15T00:01:18;24.65;;;18.42;;
43337;SDS011;28933;52.492;13.434;2023-04-15T00:03:44;22.05;;;17.38;;
43337;SDS011;28933;52.492;13.434;2023-04-15T00:06:10;24.40;;;18.00;;
43337;SDS011;28933;52.492;13.434;2023-04-15T00:08:36;23.08;;;18.17;;
43337;SDS011;28933;52.492;13.434;2023-04-15T00:11:02;24.70;;;18.85;;
43337;SDS011;28933;52.492;13.434;2023-04-15T00:13:30;22.95;;;17.98;;
43337;SDS011;28933;52.492;13.434;2023-04-15T00:15:56;24.63;;;18.27;;
43337;SDS011;28933;52.492;13.434;2023-04-15T00:18:22;23.52;;;17.77;;
43337;SDS011;28933;52.492;13.434;2023-04-15T00:20:48;24.10;;;18.80;;
43337;SDS011;28933;52.492;13.434;2023-04-15T00:23:14;25.58;;;18.95;;
43337;SDS011;28933;52.492;13.434;2023-04-15T00:25:40;26.15;;;19.75;;
43337;SDS011;28933;52.492;13.434;2023-04-15T00:28:06;21.90;;;17.65;;
43337;SDS011;28933;52.492;13.434;2023-04-15T00:30:32;25.33;;;19.23;;
43337;SDS011;28933;52.492;13.434;2023-04-15T00:32:58;24.88;;;17.92;;
43337;SDS011;28933;52.492;13.434;2023-04-15T00:35:26;27.33;;;19.58;;
43337;SDS011;28933;52.492;13.434;2023-04-15T00:37:51;26.45;;;19.38;;
43337;SDS011;28933;52.492;13.434;2023-04-15T00:40:17;27.02;;;19.25;;
43337;SDS011;28933;52.492;13.434;2023-04-15T00:42:45;28.67;;;20.13;;
43337;SDS011;28933;52.492;13.434;2023-04-15T00:45:11;29.05;;;20.80;;
43337;SDS011;28933;52.492;13.434;2023-04-15T00:47:37;27.92;;;20.20;;
43337;SDS011;28933;52.492;13.434;2023-04-15T00:50:05;26.55;;;19.30;;
43337;SDS011;28933;52.492;13.434;2023-04-15T00:52:32;29.85;;;20.23;;
43337;SDS011;28933;52.492;13.434;2023-04-15T00:54:58;27.58;;;20.25;;
43337;SDS011;28933;52.492;13.434;2023-04-15T00:57:24;29.15;;;20.30;;
43337;SDS011;28933;52.492;13.434;2023-04-15T00:59:52;27.90;;;21.10;;
43337;SDS011;28933;52.492;13.434;2023-04-15T01:02:20;30.02;;;22.05;;
43337;SDS011;28933;52.492;13.434;2023-04-15T01:04:46;32.67;;;22.98;;
43337;SDS011;28933;52.492;13.434;2023-04-15T01:07:12;30.42;;;20.27;;
43337;SDS011;28933;52.492;13.434;2023-04-15T01:09:38;31.65;;;22.35;;
43337;SDS011;28933;52.492;13.434;2023-04-15T01:12:06;30.20;;;21.13;;
43337;SDS011;28933;52.492;13.434;2023-04-15T01:14:34;30.90;;;22.70;;
43337;SDS011;28933;52.492;13.434;2023-04-15T01:17:00;32.65;;;23.13;;
43337;SDS011;28933;52.492;13.434;2023-04-15T01:19:26;29.08;;;21.55;;
43337;SDS011;28933;52.492;13.434;2023-04-15T01:21:52;35.00;;;24.58;;
43337;SDS011;28933;52.492;13.434;2023-04-15T01:24:19;31.80;;;23.27;;
43337;SDS011;28933;52.492;13.434;2023-04-15T01:26:45;31.15;;;22.38;;
43337;SDS011;28933;52.492;13.434;2023-04-15T01:29:11;31.17;;;22.58;;
43337;SDS011;28933;52.492;13.434;2023-04-15T01:31:37;35.83;;;23.38;;
43337;SDS011;28933;52.492;13.434;2023-04-15T01:34:03;33.55;;;23.80;;
43337;SDS011;28933;52.492;13.434;2023-04-15T01:36:29;35.80;;;23.80;;
43337;SDS011;28933;52.492;13.434;2023-04-15T01:38:54;37.30;;;24.33;;
43337;SDS011;28933;52.492;13.434;2023-04-15T01:41:24;35.50;;;24.17;;
43337;SDS011;28933;52.492;13.434;2023-04-15T01:43:50;33.13;;;21.73;;
43337;SDS011;28933;52.492;13.434;2023-04-15T01:46:16;38.25;;;24.45;;
43337;SDS011;28933;52.492;13.434;2023-04-15T01:48:42;35.22;;;23.67;;
43337;SDS011;28933;52.492;13.434;2023-04-15T01:51:07;37.13;;;25.65;;
43337;SDS011;28933;52.492;13.434;2023-04-15T01:53:33;37.85;;;24.83;;
43337;SDS011;28933;52.492;13.434;2023-04-15T01:55:59;34.88;;;24.05;;
43337;SDS011;28933;52.492;13.434;2023-04-15T01:58:24;34.60;;;23.55;;
43337;SDS011;28933;52.492;13.434;2023-04-15T02:00:51;40.80;;;25.75;;
43337;SDS011;28933;52.492;13.434;2023-04-15T02:03:16;41.10;;;27.00;;
43337;SDS011;28933;52.492;13.434;2023-04-15T02:05:42;33.58;;;22.85;;
43337;SDS011;28933;52.492;13.434;2023-04-15T02:08:08;35.22;;;23.48;;
43337;SDS011;28933;52.492;13.434;2023-04-15T02:10:33;38.22;;;24.50;;
43337;SDS011;28933;52.492;13.434;2023-04-15T02:12:59;38.15;;;24.92;;
43337;SDS011;28933;52.492;13.434;2023-04-15T02:15:25;38.17;;;24.20;;
43337;SDS011;28933;52.492;13.434;2023-04-15T02:17:51;36.60;;;24.05;;
43337;SDS011;28933;52.492;13.434;2023-04-15T02:20:19;38.72;;;24.88;;
43337;SDS011;28933;52.492;13.434;2023-04-15T02:22:46;35.55;;;24.40;;
43337;SDS011;28933;52.492;13.434;2023-04-15T02:25:12;39.42;;;25.25;;
43337;SDS011;28933;52.492;13.434;2023-04-15T02:27:38;39.05;;;26.60;;
43337;SDS011;28933;52.492;13.434;2023-04-15T02:30:04;37.80;;;24.05;;
43337;SDS011;28933;52.492;13.434;2023-04-15T02:32:31;38.63;;;25.33;;
43337;SDS011;28933;52.492;13.434;2023-04-15T02:35:01;39.10;;;26.33;;
43337;SDS011;28933;52.492;13.434;2023-04-15T02:37:31;38.30;;;24.65;;
43337;SDS011;28933;52.492;13.434;2023-04-15T02:40:00;36.38;;;23.85;;
43337;SDS011;28933;52.492;13.434;2023-04-15T02:42:26;38.70;;;24.67;;
43337;SDS011;28933;52.492;13.434;2023-04-15T02:44:52;38.28;;;23.90;;
43337;SDS011;28933;52.492;13.434;2023-04-15T02:47:19;37.50;;;24.02;;
43337;SDS011;28933;52.492;13.434;2023-04-15T02:49:44;35.35;;;23.48;;
43337;SDS011;28933;52.492;13.434;2023-04-15T02:52:10;37.95;;;25.95;;
43337;SDS011;28933;52.492;13.434;2023-04-15T02:54:36;36.90;;;23.48;;
43337;SDS011;28933;52.492;13.434;2023-04-15T02:57:02;38.67;;;25.20;;
43337;SDS011;28933;52.492;13.434;2023-04-15T02:59:30;36.05;;;24.20;;
43337;SDS011;28933;52.492;13.434;2023-04-15T03:01:56;35.67;;;23.73;;
43337;SDS011;28933;52.492;13.434;2023-04-15T03:04:24;35.35;;;23.77;;
43337;SDS011;28933;52.492;13.434;2023-04-15T03:06:50;34.70;;;24.52;;
43337;SDS011;28933;52.492;13.434;2023-04-15T03:09:16;36.38;;;23.58;;
43337;SDS011;28933;52.492;13.434;2023-04-15T03:11:42;34.22;;;23.50;;
43337;SDS011;28933;52.492;13.434;2023-04-15T03:14:07;34.35;;;22.42;;
43337;SDS011;28933;52.492;13.434;2023-04-15T03:16:33;40.10;;;24.08;;
43337;SDS011;28933;52.492;13.434;2023-04-15T03:18:59;35.67;;;22.52;;
43337;SDS011;28933;52.492;13.434;2023-04-15T03:21:24;30.88;;;21.65;;
43337;SDS011;28933;52.492;13.434;2023-04-15T03:23:50;36.50;;;24.52;;
43337;SDS011;28933;52.492;13.434;2023-04-15T03:26:28;34.83;;;24.35;;
43337;SDS011;28933;52.492;13.434;2023-04-15T03:28:55;32.15;;;20.92;;
43337;SDS011;28933;52.492;13.434;2023-04-15T03:31:21;31.80;;;22.65;;
43337;SDS011;28933;52.492;13.434;2023-04-15T03:33:47;33.65;;;21.83;;
43337;SDS011;28933;52.492;13.434;2023-04-15T03:36:13;33.60;;;23.00;;
43337;SDS011;28933;52.492;13.434;2023-04-15T03:38:40;31.80;;;21.45;;
43337;SDS011;28933;52.492;13.434;2023-04-15T03:41:06;31.75;;;22.00;;
43337;SDS011;28933;52.492;13.434;2023-04-15T03:43:31;31.60;;;22.20;;
43337;SDS011;28933;52.492;13.434;2023-04-15T03:45:57;31.02;;;22.25;;
43337;SDS011;28933;52.492;13.434;2023-04-15T03:48:23;31.77;;;22.17;;
43337;SDS011;28933;52.492;13.434;2023-04-15T03:50:49;31.73;;;22.42;;
43337;SDS011;28933;52.492;13.434;2023-04-15T03:53:14;33.05;;;22.25;;
43337;SDS011;28933;52.492;13.434;2023-04-15T03:55:40;32.85;;;21.90;;
43337;SDS011;28933;52.492;13.434;2023-04-15T03:58:06;30.77;;;21.45;;
43337;SDS011;28933;52.492;13.434;2023-04-15T04:00:31;29.83;;;20.98;;
43337;SDS011;28933;52.492;13.434;2023-04-15T04:02:57;30.23;;;21.27;;
43337;SDS011;28933;52.492;13.434;2023-04-15T04:05:22;28.67;;;19.33;;
43337;SDS011;28933;52.492;13.434;2023-04-15T04:07:48;25.00;;;18.80;;
43337;SDS011;28933;52.492;13.434;2023-04-15T04:10:14;31.70;;;21.55;;
43337;SDS011;28933;52.492;13.434;2023-04-15T04:12:40;33.65;;;20.23;;
43337;SDS011;28933;52.492;13.434;2023-04-15T04:15:05;26.88;;;19.20;;
43337;SDS011;28933;52.492;13.434;2023-04-15T04:17:32;28.15;;;18.52;;
43337;SDS011;28933;52.492;13.434;2023-04-15T04:19:57;27.88;;;18.67;;
43337;SDS011;28933;52.492;13.434;2023-04-15T04:22:23;28.67;;;19.73;;
43337;SDS011;28933;52.492;13.434;2023-04-15T04:24:49;27.27;;;19.67;;
43337;SDS011;28933;52.492;13.434;2023-04-15T04:27:15;29.95;;;20.90;;
43337;SDS011;28933;52.492;13.434;2023-04-15T04:29:41;26.77;;;18.73;;
43337;SDS011;28933;52.492;13.434;2023-04-15T04:32:07;26.65;;;18.85;;
43337;SDS011;28933;52.492;13.434;2023-04-15T04:34:33;27.67;;;18.83;;
43337;SDS011;28933;52.492;13.434;2023-04-15T04:36:58;27.08;;;18.75;;
43337;SDS011;28933;52.492;13.434;2023-04-15T04:39:24;25.88;;;17.92;;
43337;SDS011;28933;52.492;13.434;2023-04-15T04:41:50;27.20;;;18.60;;
43337;SDS011;28933;52.492;13.434;2023-04-15T04:44:18;25.52;;;17.52;;
43337;SDS011;28933;52.492;13.434;2023-04-15T04:46:44;24.38;;;17.50;;
43337;SDS011;28933;52.492;13.434;2023-04-15T04:49:10;24.98;;;18.45;;
43337;SDS011;28933;52.492;13.434;2023-04-15T04:51:35;24.50;;;18.55;;
43337;SDS011;28933;52.492;13.434;2023-04-15T04:54:01;25.27;;;17.33;;
43337;SDS011;28933;52.492;13.434;2023-04-15T04:56:28;24.63;;;16.73;;
43337;SDS011;28933;52.492;13.434;2023-04-15T04:58:53;23.50;;;16.83;;
43337;SDS011;28933;52.492;13.434;2023-04-15T05:01:19;24.55;;;18.10;;
43337;SDS011;28933;52.492;13.434;2023-04-15T05:03:45;24.05;;;16.60;;
43337;SDS011;28933;52.492;13.434;2023-04-15T05:06:11;25.48;;;16.88;;
43337;SDS011;28933;52.492;13.434;2023-04-15T05:08:36;23.75;;;16.95;;
43337;SDS011;28933;52.492;13.434;2023-04-15T05:11:02;24.30;;;17.38;;
43337;SDS011;28933;52.492;13.434;2023-04-15T05:13:28;23.70;;;16.80;;
43337;SDS011;28933;52.492;13.434;2023-04-15T05:15:54;23.02;;;16.63;;
43337;SDS011;28933;52.492;13.434;2023-04-15T05:18:20;24.13;;;16.95;;
43337;SDS011;28933;52.492;13.434;2023-04-15T05:20:46;20.77;;;15.80;;
43337;SDS011;28933;52.492;13.434;2023-04-15T05:23:13;21.58;;;16.42;;
43337;SDS011;28933;52.492;13.434;2023-04-15T05:25:39;22.98;;;15.65;;
43337;SDS011;28933;52.492;13.434;2023-04-15T05:28:05;21.73;;;14.32;;
43337;SDS011;28933;52.492;13.434;2023-04-15T05:30:31;20.30;;;15.38;;
43337;SDS011;28933;52.492;13.434;2023-04-15T05:32:56;21.40;;;15.23;;
43337;SDS011;28933;52.492;13.434;2023-04-15T05:35:22;20.20;;;14.77;;
43337;SDS011;28933;52.492;13.434;2023-04-15T05:37:47;20.95;;;14.73;;
43337;SDS011;28933;52.492;13.434;2023-04-15T05:40:13;19.85;;;13.75;;
43337;SDS011;28933;52.492;13.434;2023-04-15T05:42:39;18.58;;;13.50;;
43337;SDS011;28933;52.492;13.434;2023-04-15T05:45:05;17.42;;;13.02;;
43337;SDS011;28933;52.492;13.434;2023-04-15T05:47:34;18.30;;;13.75;;
43337;SDS011;28933;52.492;13.434;2023-04-15T05:50:01;17.08;;;13.38;;
43337;SDS011;28933;52.492;13.434;2023-04-15T05:52:28;20.27;;;13.35;;
43337;SDS011;28933;52.492;13.434;2023-04-15T05:54:53;20.15;;;13.57;;
43337;SDS011;28933;52.492;13.434;2023-04-15T05:57:19;19.92;;;14.15;;
43337;SDS011;28933;52.492;13.434;2023-04-15T05:59:45;19.55;;;13.80;;
43337;SDS011;28933;52.492;13.434;2023-04-15T06:02:10;18.40;;;14.60;;
43337;SDS011;28933;52.492;13.434;2023-04-15T06:04:37;21.83;;;13.18;;
43337;SDS011;28933;52.492;13.434;2023-04-15T06:07:03;18.60;;;13.45;;
43337;SDS011;28933;52.492;13.434;2023-04-15T06:09:29;19.45;;;13.68;;
43337;SDS011;28933;52.492;13.434;2023-04-15T06:11:55;20.67;;;13.18;;
43337;SDS011;28933;52.492;13.434;2023-04-15T06:14:21;17.75;;;12.98;;
43337;SDS011;28933;52.492;13.434;2023-04-15T06:16:47;19.80;;;12.55;;
43337;SDS011;28933;52.492;13.434;2023-04-15T06:19:13;16.52;;;12.77;;
43337;SDS011;28933;52.492;13.434;2023-04-15T06:21:38;17.77;;;12.60;;
43337;SDS011;28933;52.492;13.434;2023-04-15T06:24:04;18.00;;;13.27;;
43337;SDS011;28933;52.492;13.434;2023-04-15T06:26:30;16.40;;;12.30;;
43337;SDS011;28933;52.492;13.434;2023-04-15T06:28:56;21.00;;;13.35;;
43337;SDS011;28933;52.492;13.434;2023-04-15T06:31:21;14.88;;;11.85;;
43337;SDS011;28933;52.492;13.434;2023-04-15T06:33:47;15.38;;;11.95;;
43337;SDS011;28933;52.492;13.434;2023-04-15T06:36:13;17.08;;;11.98;;
43337;SDS011;28933;52.492;13.434;2023-04-15T06:38:39;18.90;;;11.98;;
43337;SDS011;28933;52.492;13.434;2023-04-15T06:41:04;16.85;;;12.35;;
43337;SDS011;28933;52.492;13.434;2023-04-15T06:43:30;15.30;;;11.55;;
43337;SDS011;28933;52.492;13.434;2023-04-15T06:45:56;17.20;;;12.20;;
43337;SDS011;28933;52.492;13.434;2023-04-15T06:48:22;17.58;;;11.63;;
43337;SDS011;28933;52.492;13.434;2023-04-15T06:50:48;14.45;;;11.00;;
43337;SDS011;28933;52.492;13.434;2023-04-15T06:53:13;16.90;;;11.13;;
43337;SDS011;28933;52.492;13.434;2023-04-15T06:55:39;17.10;;;11.48;;
43337;SDS011;28933;52.492;13.434;2023-04-15T06:58:05;14.45;;;11.77;;
43337;SDS011;28933;52.492;13.434;2023-04-15T07:00:31;13.93;;;10.88;;
43337;SDS011;28933;52.492;13.434;2023-04-15T07:02:58;15.82;;;10.40;;
43337;SDS011;28933;52.492;13.434;2023-04-15T07:05:27;16.05;;;11.38;;
43337;SDS011;28933;52.492;13.434;2023-04-15T07:07:54;13.13;;;10.65;;
43337;SDS011;28933;52.492;13.434;2023-04-15T07:10:20;16.30;;;10.05;;
43337;SDS011;28933;52.492;13.434;2023-04-15T07:12:46;14.50;;;11.00;;
43337;SDS011;28933;52.492;13.434;2023-04-15T07:15:13;11.73;;;9.50;;
43337;SDS011;28933;52.492;13.434;2023-04-15T07:17:39;15.07;;;10.93;;
43337;SDS011;28933;52.492;13.434;2023-04-15T07:20:07;12.32;;;10.20;;
43337;SDS011;28933;52.492;13.434;2023-04-15T07:22:33;14.32;;;10.88;;
43337;SDS011;28933;52.492;13.434;2023-04-15T07:24:58;13.73;;;10.75;;
43337;SDS011;28933;52.492;13.434;2023-04-15T07:27:24;13.32;;;11.13;;
43337;SDS011;28933;52.492;13.434;2023-04-15T07:29:51;12.98;;;10.50;;
43337;SDS011;28933;52.492;13.434;2023-04-15T07:32:17;11.88;;;10.05;;
43337;SDS011;28933;52.492;13.434;2023-04-15T07:34:43;13.98;;;10.82;;
43337;SDS011;28933;52.492;13.434;2023-04-15T07:37:08;14.90;;;11.65;;
43337;SDS011;28933;52.492;13.434;2023-04-15T07:39:34;14.05;;;10.20;;
43337;SDS011;28933;52.492;13.434;2023-04-15T07:42:01;13.60;;;9.93;;
43337;SDS011;28933;52.492;13.434;2023-04-15T07:44:27;15.00;;;11.63;;
43337;SDS011;28933;52.492;13.434;2023-04-15T07:46:53;16.85;;;11.18;;
43337;SDS011;28933;52.492;13.434;2023-04-15T07:49:19;14.57;;;10.90;;
43337;SDS011;28933;52.492;13.434;2023-04-15T07:51:45;13.52;;;10.43;;
43337;SDS011;28933;52.492;13.434;2023-04-15T07:54:11;14.73;;;11.18;;
43337;SDS011;28933;52.492;13.434;2023-04-15T07:56:37;14.75;;;10.43;;
43337;SDS011;28933;52.492;13.434;2023-04-15T07:59:03;12.65;;;10.88;;
43337;SDS011;28933;52.492;13.434;2023-04-15T08:01:30;13.30;;;11.25;;
43337;SDS011;28933;52.492;13.434;2023-04-15T08:03:56;14.10;;;11.25;;
43337;SDS011;28933;52.492;13.434;2023-04-15T08:06:25;15.20;;;11.10;;
43337;SDS011;28933;52.492;13.434;2023-04-15T08:08:51;15.30;;;12.23;;
43337;SDS011;28933;52.492;13.434;2023-04-15T08:11:18;15.02;;;11.70;;
43337;SDS011;28933;52.492;13.434;2023-04-15T08:13:45;15.45;;;11.23;;
43337;SDS011;28933;52.492;13.434;2023-04-15T08:16:21;14.40;;;11.02;;
43337;SDS011;28933;52.492;13.434;2023-04-15T08:18:48;15.43;;;12.00;;
43337;SDS011;28933;52.492;13.434;2023-04-15T08:21:15;14.45;;;12.02;;
43337;SDS011;28933;52.492;13.434;2023-04-15T08:23:42;13.10;;;11.23;;
43337;SDS011;28933;52.492;13.434;2023-04-15T08:26:09;16.02;;;11.90;;
43337;SDS011;28933;52.492;13.434;2023-04-15T08:28:37;16.08;;;12.38;;
43337;SDS011;28933;52.492;13.434;2023-04-15T08:31:03;17.98;;;11.45;;
43337;SDS011;28933;52.492;13.434;2023-04-15T08:33:29;14.75;;;11.60;;
43337;SDS011;28933;52.492;13.434;2023-04-15T08:35:55;14.98;;;11.95;;
43337;SDS011;28933;52.492;13.434;2023-04-15T08:38:21;17.17;;;12.80;;
43337;SDS011;28933;52.492;13.434;2023-04-15T08:40:47;13.60;;;11.57;;
43337;SDS011;28933;52.492;13.434;2023-04-15T08:43:23;16.75;;;11.20;;
43337;SDS011;28933;52.492;13.434;2023-04-15T08:45:52;15.90;;;12.50;;
43337;SDS011;28933;52.492;13.434;2023-04-15T08:48:19;12.75;;;10.75;;
43337;SDS011;28933;52.492;13.434;2023-04-15T08:50:48;16.05;;;11.25;;
43337;SDS011;28933;52.492;13.434;2023-04-15T08:53:14;15.52;;;12.45;;
43337;SDS011;28933;52.492;13.434;2023-04-15T08:55:44;15.60;;;11.80;;
43337;SDS011;28933;52.492;13.434;2023-04-15T08:58:11;14.38;;;11.57;;
43337;SDS011;28933;52.492;13.434;2023-04-15T09:00:37;15.43;;;12.07;;
43337;SDS011;28933;52.492;13.434;2023-04-15T09:03:07;18.38;;;13.15;;
43337;SDS011;28933;52.492;13.434;2023-04-15T09:05:34;15.73;;;12.18;;
43337;SDS011;28933;52.492;13.434;2023-04-15T09:08:01;15.20;;;12.75;;
43337;SDS011;28933;52.492;13.434;2023-04-15T09:10:27;16.20;;;12.20;;
43337;SDS011;28933;52.492;13.434;2023-04-15T09:12:54;15.63;;;12.43;;
43337;SDS011;28933;52.492;13.434;2023-04-15T09:15:20;18.13;;;13.23;;
43337;SDS011;28933;52.492;13.434;2023-04-15T09:17:46;16.23;;;12.40;;
43337;SDS011;28933;52.492;13.434;2023-04-15T09:20:13;17.10;;;12.63;;
43337;SDS011;28933;52.492;13.434;2023-04-15T09:22:40;14.38;;;12.07;;
43337;SDS011;28933;52.492;13.434;2023-04-15T09:25:23;16.67;;;12.32;;
43337;SDS011;28933;52.492;13.434;2023-04-15T09:27:54;16.02;;;13.00;;
43337;SDS011;28933;52.492;13.434;2023-04-15T09:30:26;15.85;;;11.50;;
43337;SDS011;28933;52.492;13.434;2023-04-15T09:32:53;14.00;;;11.98;;
43337;SDS011;28933;52.492;13.434;2023-04-15T09:35:21;15.82;;;11.98;;
43337;SDS011;28933;52.492;13.434;2023-04-15T09:37:48;15.18;;;12.23;;
43337;SDS011;28933;52.492;13.434;2023-04-15T09:40:14;17.83;;;13.35;;
43337;SDS011;28933;52.492;13.434;2023-04-15T09:42:57;15.00;;;11.85;;
43337;SDS011;28933;52.492;13.434;2023-04-15T09:45:23;15.90;;;12.40;;
43337;SDS011;28933;52.492;13.434;2023-04-15T09:47:49;13.93;;;11.88;;
43337;SDS011;28933;52.492;13.434;2023-04-15T09:50:15;14.18;;;11.40;;
43337;SDS011;28933;52.492;13.434;2023-04-15T09:52:42;15.77;;;11.27;;
43337;SDS011;28933;52.492;13.434;2023-04-15T09:55:08;16.60;;;12.50;;
43337;SDS011;28933;52.492;13.434;2023-04-15T09:57:35;12.93;;;11.07;;
43337;SDS011;28933;52.492;13.434;2023-04-15T10:00:05;15.15;;;12.60;;
43337;SDS011;28933;52.492;13.434;2023-04-15T10:02:32;17.88;;;12.13;;
43337;SDS011;28933;52.492;13.434;2023-04-15T10:04:59;14.13;;;11.13;;
43337;SDS011;28933;52.492;13.434;2023-04-15T10:07:26;13.65;;;11.18;;
43337;SDS011;28933;52.492;13.434;2023-04-15T10:09:52;14.82;;;12.05;;
43337;SDS011;28933;52.492;13.434;2023-04-15T10:12:19;13.00;;;11.15;;
43337;SDS011;28933;52.492;13.434;2023-04-15T10:14:51;15.55;;;11.95;;
43337;SDS011;28933;52.492;13.434;2023-04-15T10:17:21;12.48;;;10.75;;
43337;SDS011;28933;52.492;13.434;2023-04-15T10:19:47;13.80;;;10.90;;
43337;SDS011;28933;52.492;13.434;2023-04-15T10:22:15;13.15;;;10.57;;
43337;SDS011;28933;52.492;13.434;2023-04-15T10:24:42;17.67;;;12.20;;
43337;SDS011;28933;52.492;13.434;2023-04-15T10:27:09;14.05;;;11.45;;
43337;SDS011;28933;52.492;13.434;2023-04-15T10:29:35;14.70;;;11.82;;
43337;SDS011;28933;52.492;13.434;2023-04-15T10:32:01;15.43;;;11.93;;
43337;SDS011;28933;52.492;13.434;2023-04-15T10:34:28;15.18;;;10.88;;
43337;SDS011;28933;52.492;13.434;2023-04-15T10:36:55;13.50;;;11.10;;
43337;SDS011;28933;52.492;13.434;2023-04-15T10:39:38;13.23;;;10.38;;
43337;SDS011;28933;52.492;13.434;2023-04-15T10:44:38;15.43;;;10.85;;
43337;SDS011;28933;52.492;13.434;2023-04-15T10:47:24;11.18;;;10.02;;
43337;SDS011;28933;52.492;13.434;2023-04-15T10:49:51;13.70;;;11.20;;
43337;SDS011;28933;52.492;13.434;2023-04-15T10:52:22;12.15;;;10.73;;
43337;SDS011;28933;52.492;13.434;2023-04-15T10:54:50;12.00;;;10.02;;
43337;SDS011;28933;52.492;13.434;2023-04-15T10:57:40;13.00;;;9.77;;
43337;SDS011;28933;52.492;13.434;2023-04-15T11:02:39;12.77;;;10.05;;
43337;SDS011;28933;52.492;13.434;2023-04-15T11:05:09;12.73;;;10.40;;
43337;SDS011;28933;52.492;13.434;2023-04-15T11:07:49;12.07;;;10.50;;
43337;SDS011;28933;52.492;13.434;2023-04-15T11:12:42;14.75;;;10.80;;
43337;SDS011;28933;52.492;13.434;2023-04-15T11:18:08;11.98;;;10.13;;
43337;SDS011;28933;52.492;13.434;2023-04-15T11:20:38;14.32;;;10.75;;
43337;SDS011;28933;52.492;13.434;2023-04-15T11:23:06;11.63;;;10.18;;
43337;SDS011;28933;52.492;13.434;2023-04-15T11:25:34;13.38;;;9.85;;
43337;SDS011;28933;52.492;13.434;2023-04-15T11:28:01;14.05;;;10.10;;
43337;SDS011;28933;52.492;13.434;2023-04-15T11:30:32;10.93;;;8.80;;
43337;SDS011;28933;52.492;13.434;2023-04-15T11:32:59;14.00;;;11.23;;
43337;SDS011;28933;52.492;13.434;2023-04-15T11:35:26;12.18;;;9.23;;
43337;SDS011;28933;52.492;13.434;2023-04-15T11:37:52;11.38;;;9.65;;
43337;SDS011;28933;52.492;13.434;2023-04-15T11:40:23;10.80;;;9.70;;
43337;SDS011;28933;52.492;13.434;2023-04-15T11:43:10;11.45;;;9.13;;
43337;SDS011;28933;52.492;13.434;2023-04-15T11:45:37;12.27;;;9.70;;
43337;SDS011;28933;52.492;13.434;2023-04-15T11:48:15;11.65;;;10.13;;
43337;SDS011;28933;52.492;13.434;2023-04-15T11:50:42;11.98;;;10.60;;
43337;SDS011;28933;52.492;13.434;2023-04-15T11:53:11;12.25;;;10.18;;
43337;SDS011;28933;52.492;13.434;2023-04-15T11:55:45;13.00;;;9.90;;
43337;SDS011;28933;52.492;13.434;2023-04-15T11:58:18;11.75;;;9.70;;
43337;SDS011;28933;52.492;13.434;2023-04-15T12:01:06;12.15;;;9.27;;
43337;SDS011;28933;52.492;13.434;2023-04-15T12:03:44;12.60;;;9.57;;
43337;SDS011;28933;52.492;13.434;2023-04-15T12:06:12;13.73;;;10.52;;
43337;SDS011;28933;52.492;13.434;2023-04-15T12:11:19;10.23;;;8.52;;
43337;SDS011;28933;52.492;13.434;2023-04-15T12:14:01;11.90;;;9.82;;
43337;SDS011;28933;52.492;13.434;2023-04-15T12:16:28;12.90;;;9.90;;
43337;SDS011;28933;52.492;13.434;2023-04-15T12:18:58;10.77;;;8.68;;
43337;SDS011;28933;52.492;13.434;2023-04-15T12:21:25;10.68;;;9.55;;
43337;SDS011;28933;52.492;13.434;2023-04-15T12:23:57;10.57;;;8.45;;
43337;SDS011;28933;52.492;13.434;2023-04-15T12:26:28;11.30;;;9.30;;
43337;SDS011;28933;52.492;13.434;2023-04-15T12:28:58;11.18;;;9.00;;
43337;SDS011;28933;52.492;13.434;2023-04-15T12:31:29;9.30;;;7.85;;
43337;SDS011;28933;52.492;13.434;2023-04-15T12:33:55;10.60;;;8.85;;
43337;SDS011;28933;52.492;13.434;2023-04-15T12:36:25;8.95;;;7.80;;
43337;SDS011;28933;52.492;13.434;2023-04-15T12:38:51;11.98;;;8.98;;
43337;SDS011;28933;52.492;13.434;2023-04-15T12:41:17;12.32;;;8.98;;
43337;SDS011;28933;52.492;13.434;2023-04-15T12:43:45;11.75;;;8.85;;
43337;SDS011;28933;52.492;13.434;2023-04-15T12:46:12;11.18;;;8.05;;
43337;SDS011;28933;52.492;13.434;2023-04-15T12:48:38;11.35;;;9.13;;
43337;SDS011;28933;52.492;13.434;2023-04-15T12:51:04;9.85;;;8.80;;
43337;SDS011;28933;52.492;13.434;2023-04-15T12:53:30;10.98;;;9.05;;
43337;SDS011;28933;52.492;13.434;2023-04-15T12:55:56;9.55;;;7.95;;
43337;SDS011;28933;52.492;13.434;2023-04-15T12:58:21;9.35;;;7.55;;
43337;SDS011;28933;52.492;13.434;2023-04-15T13:00:47;10.02;;;8.32;;
43337;SDS011;28933;52.492;13.434;2023-04-15T13:03:13;9.82;;;8.13;;
43337;SDS011;28933;52.492;13.434;2023-04-15T13:05:40;9.25;;;7.28;;
43337;SDS011;28933;52.492;13.434;2023-04-15T13:08:06;7.85;;;6.45;;
43337;SDS011;28933;52.492;13.434;2023-04-15T13:10:32;9.43;;;7.30;;
43337;SDS011;28933;52.492;13.434;2023-04-15T13:13:00;7.13;;;6.30;;
43337;SDS011;28933;52.492;13.434;2023-04-15T13:15:27;8.20;;;7.25;;
43337;SDS011;28933;52.492;13.434;2023-04-15T13:17:53;7.63;;;6.53;;
43337;SDS011;28933;52.492;13.434;2023-04-15T13:20:19;9.60;;;7.93;;
43337;SDS011;28933;52.492;13.434;2023-04-15T13:22:45;10.30;;;7.93;;
43337;SDS011;28933;52.492;13.434;2023-04-15T13:25:10;9.65;;;8.00;;
43337;SDS011;28933;52.492;13.434;2023-04-15T13:27:36;8.60;;;7.05;;
43337;SDS011;28933;52.492;13.434;2023-04-15T13:30:02;12.45;;;8.63;;
43337;SDS011;28933;52.492;13.434;2023-04-15T13:32:29;9.52;;;8.10;;
43337;SDS011;28933;52.492;13.434;2023-04-15T13:34:55;8.90;;;7.55;;
43337;SDS011;28933;52.492;13.434;2023-04-15T13:37:25;10.20;;;8.65;;
43337;SDS011;28933;52.492;13.434;2023-04-15T13:39:52;8.68;;;6.95;;
43337;SDS011;28933;52.492;13.434;2023-04-15T13:42:18;9.48;;;6.93;;
43337;SDS011;28933;52.492;13.434;2023-04-15T13:44:43;8.57;;;7.68;;
43337;SDS011;28933;52.492;13.434;2023-04-15T13:47:09;9.30;;;7.65;;
43337;SDS011;28933;52.492;13.434;2023-04-15T13:49:35;8.82;;;6.40;;
43337;SDS011;28933;52.492;13.434;2023-04-15T13:52:01;7.90;;;6.90;;
43337;SDS011;28933;52.492;13.434;2023-04-15T13:54:26;11.20;;;7.43;;
43337;SDS011;28933;52.492;13.434;2023-04-15T13:56:53;7.45;;;6.25;;
43337;SDS011;28933;52.492;13.434;2023-04-15T13:59:20;7.80;;;5.70;;
43337;SDS011;28933;52.492;13.434;2023-04-15T14:01:46;8.23;;;6.50;;
43337;SDS011;28933;52.492;13.434;2023-04-15T14:04:12;8.25;;;7.00;;
43337;SDS011;28933;52.492;13.434;2023-04-15T14:06:37;7.55;;;5.88;;
43337;SDS011;28933;52.492;13.434;2023-04-15T14:09:03;7.50;;;6.10;;
43337;SDS011;28933;52.492;13.434;2023-04-15T14:11:29;7.40;;;6.43;;
43337;SDS011;28933;52.492;13.434;2023-04-15T14:13:54;9.07;;;6.75;;
43337;SDS011;28933;52.492;13.434;2023-04-15T14:16:20;9.02;;;6.53;;
43337;SDS011;28933;52.492;13.434;2023-04-15T14:18:45;8.93;;;7.88;;
43337;SDS011;28933;52.492;13.434;2023-04-15T14:21:11;7.38;;;6.13;;
43337;SDS011;28933;52.492;13.434;2023-04-15T14:23:37;7.20;;;5.65;;
43337;SDS011;28933;52.492;13.434;2023-04-15T14:26:03;8.27;;;6.75;;